SWA1214 KHOU-KCRP
Flight info
| Callsign | SWA1214 |
|---|---|
| Flight time | 0h 35m |
| Altitude | 28000 |
| Route | PTRON9 PSX V20 CRP |
| Aircraft | B737/M-SDE2E3FGHIRWXY/LB1 |
Departure
| Time | 2026-04-24 21:51 |
|---|---|
| Airport | William P. Hobby Airport (KHOU) |
Arrival
| Time | 2026-04-24 22:26 |
|---|---|
| Airport | Corpus Christi International Airport (KCRP) |
| Time | Latitude | Longitude | Altitude | Speed | Heading |
|---|---|---|---|---|---|
| 2026-04-24 21:20 | 29.65294 | -95.27843 | 48 ft | 0 kts | 158° |
| 2026-04-24 21:39 | 29.65298 | -95.27845 | 51 ft | 3 kts | 160° |
| 2026-04-24 21:39 | 29.65322 | -95.27849 | 47 ft | 4 kts | 197° |
| 2026-04-24 21:39 | 29.65345 | -95.27835 | 49 ft | 4 kts | 228° |
| 2026-04-24 21:40 | 29.65356 | -95.27815 | 51 ft | 0 kts | 248° |
| 2026-04-24 21:44 | 29.65351 | -95.27831 | 48 ft | 5 kts | 248° |
| 2026-04-24 21:44 | 29.65332 | -95.27887 | 48 ft | 10 kts | 248° |
| 2026-04-24 21:44 | 29.65301 | -95.27958 | 51 ft | 10 kts | 227° |
| 2026-04-24 21:45 | 29.65242 | -95.28013 | 51 ft | 12 kts | 202° |
| 2026-04-24 21:45 | 29.65168 | -95.27972 | 51 ft | 14 kts | 134° |
| 2026-04-24 21:45 | 29.65104 | -95.27893 | 48 ft | 13 kts | 122° |
| 2026-04-24 21:45 | 29.65097 | -95.27791 | 51 ft | 13 kts | 88° |
| 2026-04-24 21:46 | 29.65100 | -95.27690 | 51 ft | 12 kts | 88° |
| 2026-04-24 21:46 | 29.65102 | -95.27591 | 51 ft | 12 kts | 89° |
| 2026-04-24 21:46 | 29.65104 | -95.27495 | 51 ft | 12 kts | 89° |
| 2026-04-24 21:46 | 29.65108 | -95.27401 | 51 ft | 12 kts | 76° |
| 2026-04-24 21:47 | 29.65157 | -95.27332 | 51 ft | 11 kts | 44° |
| 2026-04-24 21:47 | 29.65194 | -95.27291 | 50 ft | 11 kts | 44° |
| 2026-04-24 21:47 | 29.65270 | -95.27206 | 51 ft | 13 kts | 44° |
| 2026-04-24 21:47 | 29.65339 | -95.27130 | 50 ft | 15 kts | 44° |
| 2026-04-24 21:48 | 29.65411 | -95.27051 | 50 ft | 14 kts | 44° |
| 2026-04-24 21:48 | 29.65467 | -95.26986 | 50 ft | 9 kts | 63° |
| 2026-04-24 21:48 | 29.65446 | -95.26925 | 49 ft | 8 kts | 133° |
| 2026-04-24 21:48 | 29.65409 | -95.26881 | 47 ft | 7 kts | 142° |
| 2026-04-24 21:49 | 29.65398 | -95.26886 | 51 ft | 1 kts | 239° |
| 2026-04-24 21:49 | 29.65393 | -95.26894 | 51 ft | 0 kts | 225° |
| 2026-04-24 21:50 | 29.65266 | -95.27035 | 51 ft | 63 kts | 223° |
| 2026-04-24 21:50 | 29.64763 | -95.27588 | 51 ft | 134 kts | 224° |
| 2026-04-24 21:51 | 29.63977 | -95.28482 | 228 ft | 172 kts | 219° |
| 2026-04-24 21:51 | 29.63075 | -95.29342 | 1170 ft | 164 kts | 206° |
| 2026-04-24 21:51 | 29.61966 | -95.29483 | 2071 ft | 169 kts | 171° |
| 2026-04-24 21:51 | 29.60831 | -95.28827 | 2509 ft | 203 kts | 145° |
| 2026-04-24 21:52 | 29.59692 | -95.27748 | 2987 ft | 226 kts | 143° |
| 2026-04-24 21:52 | 29.58332 | -95.26601 | 3406 ft | 258 kts | 149° |
| 2026-04-24 21:52 | 29.56814 | -95.25428 | 4220 ft | 267 kts | 149° |
| 2026-04-24 21:52 | 29.55254 | -95.24206 | 5065 ft | 275 kts | 148° |
| 2026-04-24 21:53 | 29.53660 | -95.22942 | 5963 ft | 282 kts | 148° |
| 2026-04-24 21:53 | 29.52033 | -95.21645 | 6852 ft | 287 kts | 148° |
| 2026-04-24 21:53 | 29.50325 | -95.20472 | 7714 ft | 288 kts | 164° |
| 2026-04-24 21:53 | 29.48368 | -95.20183 | 8697 ft | 282 kts | 190° |
| 2026-04-24 21:54 | 29.46448 | -95.20623 | 9701 ft | 283 kts | 197° |
| 2026-04-24 21:54 | 29.44612 | -95.21465 | 10435 ft | 289 kts | 218° |
| 2026-04-24 21:54 | 29.43166 | -95.23165 | 10667 ft | 313 kts | 239° |
| 2026-04-24 21:54 | 29.42113 | -95.25446 | 11053 ft | 332 kts | 245° |
| 2026-04-24 21:55 | 29.41119 | -95.27833 | 11783 ft | 340 kts | 246° |
| 2026-04-24 21:55 | 29.40117 | -95.30291 | 12716 ft | 341 kts | 246° |
| 2026-04-24 21:55 | 29.39099 | -95.32777 | 13597 ft | 347 kts | 246° |
| 2026-04-24 21:55 | 29.38059 | -95.35299 | 14366 ft | 351 kts | 246° |
| 2026-04-24 21:56 | 29.37005 | -95.37833 | 15219 ft | 353 kts | 246° |
| 2026-04-24 21:56 | 29.35942 | -95.40375 | 16081 ft | 354 kts | 247° |
| 2026-04-24 21:56 | 29.34870 | -95.42926 | 16883 ft | 357 kts | 247° |
| 2026-04-24 21:56 | 29.33782 | -95.45509 | 17649 ft | 361 kts | 247° |
| 2026-04-24 21:57 | 29.32685 | -95.48108 | 18388 ft | 364 kts | 247° |
| 2026-04-24 21:57 | 29.31576 | -95.50732 | 19081 ft | 366 kts | 247° |
| 2026-04-24 21:57 | 29.30478 | -95.53328 | 19772 ft | 368 kts | 248° |
| 2026-04-24 21:57 | 29.29356 | -95.55979 | 20474 ft | 370 kts | 248° |
| 2026-04-24 21:58 | 29.28231 | -95.58635 | 21178 ft | 372 kts | 248° |
| 2026-04-24 21:58 | 29.27098 | -95.61309 | 21858 ft | 374 kts | 248° |
| 2026-04-24 21:58 | 29.25957 | -95.63999 | 22479 ft | 377 kts | 248° |
| 2026-04-24 21:58 | 29.24809 | -95.66704 | 23098 ft | 379 kts | 249° |
| 2026-04-24 21:59 | 29.23652 | -95.69432 | 23633 ft | 382 kts | 249° |
| 2026-04-24 21:59 | 29.22487 | -95.72173 | 24120 ft | 384 kts | 249° |
| 2026-04-24 21:59 | 29.21316 | -95.74926 | 24654 ft | 385 kts | 249° |
| 2026-04-24 21:59 | 29.20106 | -95.77649 | 25339 ft | 384 kts | 245° |
| 2026-04-24 22:00 | 29.18620 | -95.80183 | 26109 ft | 384 kts | 238° |
| 2026-04-24 22:00 | 29.16834 | -95.82469 | 26855 ft | 385 kts | 233° |
| 2026-04-24 22:00 | 29.14981 | -95.84675 | 27515 ft | 384 kts | 233° |
| 2026-04-24 22:00 | 29.13134 | -95.86859 | 27766 ft | 386 kts | 233° |
| 2026-04-24 22:01 | 29.11273 | -95.89060 | 27770 ft | 384 kts | 233° |
| 2026-04-24 22:01 | 29.09409 | -95.91271 | 27786 ft | 385 kts | 233° |
| 2026-04-24 22:01 | 29.07554 | -95.93481 | 27788 ft | 385 kts | 233° |
| 2026-04-24 22:01 | 29.05700 | -95.95693 | 27798 ft | 384 kts | 233° |
| 2026-04-24 22:02 | 29.03851 | -95.97903 | 27802 ft | 385 kts | 233° |
| 2026-04-24 22:02 | 29.01998 | -96.00117 | 27787 ft | 385 kts | 233° |
| 2026-04-24 22:02 | 29.00143 | -96.02334 | 27798 ft | 385 kts | 233° |
| 2026-04-24 22:02 | 28.98293 | -96.04542 | 27794 ft | 385 kts | 233° |
| 2026-04-24 22:03 | 28.96445 | -96.06748 | 27795 ft | 385 kts | 233° |
| 2026-04-24 22:03 | 28.94617 | -96.08929 | 27798 ft | 384 kts | 233° |
| 2026-04-24 22:03 | 28.92767 | -96.11134 | 27802 ft | 384 kts | 233° |
| 2026-04-24 22:03 | 28.90921 | -96.13334 | 27803 ft | 383 kts | 233° |
| 2026-04-24 22:04 | 28.89074 | -96.15534 | 27806 ft | 383 kts | 233° |
| 2026-04-24 22:04 | 28.87227 | -96.17731 | 27815 ft | 383 kts | 233° |
| 2026-04-24 22:04 | 28.85384 | -96.19925 | 27813 ft | 383 kts | 233° |
| 2026-04-24 22:04 | 28.83538 | -96.22121 | 27813 ft | 383 kts | 233° |
| 2026-04-24 22:05 | 28.81694 | -96.24312 | 27816 ft | 383 kts | 233° |
| 2026-04-24 22:05 | 28.79848 | -96.26507 | 27795 ft | 384 kts | 233° |
| 2026-04-24 22:05 | 28.77995 | -96.28706 | 27793 ft | 384 kts | 233° |
| 2026-04-24 22:05 | 28.76165 | -96.30875 | 27797 ft | 384 kts | 233° |
| 2026-04-24 22:06 | 28.74311 | -96.33063 | 27810 ft | 384 kts | 233° |
| 2026-04-24 22:06 | 28.72454 | -96.35248 | 27800 ft | 383 kts | 233° |
| 2026-04-24 22:06 | 28.70598 | -96.37430 | 27802 ft | 383 kts | 233° |
| 2026-04-24 22:06 | 28.68745 | -96.39608 | 27806 ft | 382 kts | 233° |
| 2026-04-24 22:07 | 28.66898 | -96.41779 | 27804 ft | 381 kts | 233° |
| 2026-04-24 22:07 | 28.65068 | -96.43927 | 27541 ft | 376 kts | 233° |
| 2026-04-24 22:07 | 28.63260 | -96.46049 | 27188 ft | 371 kts | 233° |
| 2026-04-24 22:07 | 28.61468 | -96.48155 | 26735 ft | 367 kts | 233° |
| 2026-04-24 22:08 | 28.59697 | -96.50233 | 26236 ft | 364 kts | 233° |
| 2026-04-24 22:08 | 28.57942 | -96.52291 | 25752 ft | 361 kts | 233° |
| 2026-04-24 22:08 | 28.56200 | -96.54330 | 25258 ft | 358 kts | 233° |
| 2026-04-24 22:08 | 28.54481 | -96.56333 | 24779 ft | 356 kts | 232° |
| 2026-04-24 22:09 | 28.52748 | -96.58350 | 24263 ft | 355 kts | 232° |
| 2026-04-24 22:09 | 28.51024 | -96.60356 | 23772 ft | 354 kts | 232° |
| 2026-04-24 22:09 | 28.49301 | -96.62360 | 23240 ft | 353 kts | 232° |
| 2026-04-24 22:09 | 28.47596 | -96.64344 | 22706 ft | 350 kts | 232° |
| 2026-04-24 22:10 | 28.45895 | -96.66321 | 22192 ft | 348 kts | 232° |
| 2026-04-24 22:10 | 28.44229 | -96.68257 | 21697 ft | 345 kts | 232° |
| 2026-04-24 22:10 | 28.42551 | -96.70206 | 21218 ft | 343 kts | 231° |
| 2026-04-24 22:10 | 28.40886 | -96.72141 | 20740 ft | 341 kts | 231° |
| 2026-04-24 22:11 | 28.39232 | -96.74061 | 20262 ft | 340 kts | 231° |
| 2026-04-24 22:11 | 28.37580 | -96.75978 | 19773 ft | 338 kts | 231° |
| 2026-04-24 22:11 | 28.35937 | -96.77885 | 19285 ft | 337 kts | 230° |
| 2026-04-24 22:11 | 28.34297 | -96.79787 | 18803 ft | 336 kts | 230° |
| 2026-04-24 22:12 | 28.32661 | -96.81684 | 18311 ft | 335 kts | 230° |
| 2026-04-24 22:12 | 28.31032 | -96.83572 | 17785 ft | 335 kts | 229° |
| 2026-04-24 22:12 | 28.29424 | -96.85434 | 17270 ft | 333 kts | 229° |
| 2026-04-24 22:12 | 28.27805 | -96.87307 | 16809 ft | 331 kts | 229° |
| 2026-04-24 22:13 | 28.26211 | -96.89148 | 16468 ft | 324 kts | 229° |
| 2026-04-24 22:13 | 28.24648 | -96.90985 | 16009 ft | 321 kts | 231° |
| 2026-04-24 22:13 | 28.23278 | -96.92962 | 15555 ft | 318 kts | 236° |
| 2026-04-24 22:13 | 28.21991 | -96.94998 | 15107 ft | 316 kts | 237° |
| 2026-04-24 22:14 | 28.20728 | -96.97031 | 14654 ft | 315 kts | 237° |
| 2026-04-24 22:14 | 28.19482 | -96.99030 | 14187 ft | 314 kts | 236° |
| 2026-04-24 22:14 | 28.18214 | -97.01049 | 13721 ft | 314 kts | 236° |
| 2026-04-24 22:14 | 28.16944 | -97.03057 | 13214 ft | 314 kts | 236° |
| 2026-04-24 22:15 | 28.15674 | -97.05059 | 12738 ft | 312 kts | 235° |
| 2026-04-24 22:15 | 28.14405 | -97.07053 | 12262 ft | 311 kts | 235° |
| 2026-04-24 22:15 | 28.13133 | -97.09048 | 11791 ft | 311 kts | 234° |
| 2026-04-24 22:15 | 28.11879 | -97.11013 | 11339 ft | 309 kts | 234° |
| 2026-04-24 22:16 | 28.10616 | -97.12992 | 10883 ft | 307 kts | 234° |
| 2026-04-24 22:16 | 28.09365 | -97.14950 | 10443 ft | 307 kts | 234° |
| 2026-04-24 22:16 | 28.08135 | -97.16874 | 10262 ft | 296 kts | 233° |
| 2026-04-24 22:16 | 28.06943 | -97.18736 | 10114 ft | 285 kts | 233° |
| 2026-04-24 22:17 | 28.05882 | -97.20540 | 9972 ft | 275 kts | 242° |
| 2026-04-24 22:17 | 28.05143 | -97.22539 | 9604 ft | 275 kts | 248° |
| 2026-04-24 22:17 | 28.04492 | -97.24563 | 9217 ft | 270 kts | 249° |
| 2026-04-24 22:17 | 28.03864 | -97.26547 | 8861 ft | 265 kts | 249° |
| 2026-04-24 22:18 | 28.03237 | -97.28507 | 8522 ft | 265 kts | 249° |
| 2026-04-24 22:18 | 28.02601 | -97.30473 | 8184 ft | 266 kts | 249° |
| 2026-04-24 22:18 | 28.01961 | -97.32436 | 7850 ft | 266 kts | 249° |
| 2026-04-24 22:18 | 28.01315 | -97.34388 | 7530 ft | 264 kts | 249° |
| 2026-04-24 22:19 | 28.00668 | -97.36339 | 7159 ft | 264 kts | 249° |
| 2026-04-24 22:19 | 28.00032 | -97.38277 | 6828 ft | 262 kts | 249° |
| 2026-04-24 22:19 | 27.99609 | -97.39558 | 6607 ft | 261 kts | 249° |
| 2026-04-24 22:19 | 27.98972 | -97.41484 | 6257 ft | 261 kts | 250° |
| 2026-04-24 22:20 | 27.98336 | -97.43399 | 5917 ft | 259 kts | 250° |
| 2026-04-24 22:20 | 27.97710 | -97.45300 | 5560 ft | 257 kts | 250° |
| 2026-04-24 22:20 | 27.96888 | -97.47800 | 5127 ft | 255 kts | 249° |
| 2026-04-24 22:20 | 27.96254 | -97.49676 | 4793 ft | 256 kts | 250° |
| 2026-04-24 22:21 | 27.95831 | -97.50936 | 4541 ft | 259 kts | 250° |
| 2026-04-24 22:21 | 27.95191 | -97.52851 | 4183 ft | 260 kts | 250° |
| 2026-04-24 22:21 | 27.94557 | -97.54757 | 3843 ft | 258 kts | 249° |
| 2026-04-24 22:21 | 27.93933 | -97.56612 | 3732 ft | 246 kts | 249° |
| 2026-04-24 22:22 | 27.93342 | -97.58380 | 3623 ft | 236 kts | 249° |
| 2026-04-24 22:22 | 27.92773 | -97.60085 | 3523 ft | 227 kts | 248° |
| 2026-04-24 22:22 | 27.92220 | -97.61738 | 3429 ft | 223 kts | 248° |
| 2026-04-24 22:22 | 27.91394 | -97.63185 | 3296 ft | 221 kts | 216° |
| 2026-04-24 22:23 | 27.89977 | -97.63751 | 3087 ft | 219 kts | 178° |
| 2026-04-24 22:23 | 27.88568 | -97.63187 | 2848 ft | 219 kts | 142° |
| 2026-04-24 22:23 | 27.87459 | -97.62029 | 2620 ft | 217 kts | 137° |
| 2026-04-24 22:23 | 27.86357 | -97.60843 | 2315 ft | 217 kts | 137° |
| 2026-04-24 22:24 | 27.85280 | -97.59664 | 2054 ft | 213 kts | 136° |
| 2026-04-24 22:24 | 27.84230 | -97.58507 | 1770 ft | 207 kts | 135° |
| 2026-04-24 22:24 | 27.83218 | -97.57395 | 1490 ft | 198 kts | 137° |
| 2026-04-24 22:24 | 27.82261 | -97.56348 | 1234 ft | 184 kts | 137° |
| 2026-04-24 22:25 | 27.81376 | -97.55377 | 989 ft | 170 kts | 135° |
| 2026-04-24 22:25 | 27.80584 | -97.54506 | 835 ft | 150 kts | 135° |
| 2026-04-24 22:25 | 27.79864 | -97.53715 | 587 ft | 138 kts | 135° |
| 2026-04-24 22:25 | 27.79203 | -97.52980 | 415 ft | 130 kts | 135° |
| 2026-04-24 22:26 | 27.78562 | -97.52279 | 262 ft | 127 kts | 136° |
| 2026-04-24 22:26 | 27.77926 | -97.51586 | 94 ft | 128 kts | 136° |
| 2026-04-24 22:26 | 27.77334 | -97.50940 | 54 ft | 101 kts | 136° |
| 2026-04-24 22:26 | 27.76986 | -97.50560 | 50 ft | 37 kts | 136° |
| 2026-04-24 22:27 | 27.76897 | -97.50438 | 50 ft | 14 kts | 106° |
| 2026-04-24 22:27 | 27.76876 | -97.50343 | 50 ft | 11 kts | 106° |
| 2026-04-24 22:27 | 27.76857 | -97.50275 | 49 ft | 9 kts | 107° |
| 2026-04-24 22:27 | 27.76840 | -97.50211 | 52 ft | 8 kts | 107° |
| 2026-04-24 22:28 | 27.76843 | -97.50153 | 53 ft | 8 kts | 24° |
| 2026-04-24 22:28 | 27.76890 | -97.50187 | 53 ft | 8 kts | 317° |
| 2026-04-24 22:28 | 27.76932 | -97.50231 | 51 ft | 8 kts | 316° |
| 2026-04-24 22:28 | 27.76970 | -97.50274 | 53 ft | 8 kts | 317° |
| 2026-04-24 22:29 | 27.77061 | -97.50373 | 53 ft | 11 kts | 316° |
| 2026-04-24 22:29 | 27.77118 | -97.50431 | 53 ft | 8 kts | 332° |
| 2026-04-24 22:29 | 27.77146 | -97.50397 | 53 ft | 7 kts | 90° |
| 2026-04-24 22:30 | 27.77146 | -97.50311 | 53 ft | 21 kts | 89° |
| 2026-04-24 22:30 | 27.77149 | -97.50134 | 53 ft | 22 kts | 89° |
| 2026-04-24 22:30 | 27.77152 | -97.49963 | 50 ft | 21 kts | 89° |
| 2026-04-24 22:30 | 27.77155 | -97.49831 | 53 ft | 9 kts | 75° |
| 2026-04-24 22:31 | 27.77223 | -97.49810 | 53 ft | 13 kts | 358° |
| 2026-04-24 22:31 | 27.77295 | -97.49833 | 53 ft | 10 kts | 299° |
| 2026-04-24 22:31 | 27.77299 | -97.49910 | 53 ft | 10 kts | 270° |
| 2026-04-24 22:31 | 27.77299 | -97.49987 | 53 ft | 10 kts | 267° |
| 2026-04-24 22:32 | 27.77293 | -97.50061 | 53 ft | 9 kts | 267° |
| 2026-04-24 22:32 | 27.77296 | -97.50107 | 49 ft | 3 kts | 276° |
| 2026-04-24 22:32 | 27.77303 | -97.50135 | 53 ft | 5 kts | 295° |
| 2026-04-24 22:32 | 27.77328 | -97.50158 | 53 ft | 5 kts | 327° |
| 2026-04-24 22:33 | 27.77349 | -97.50173 | 53 ft | 2 kts | 327° |
| 2026-04-24 22:33 | 27.77352 | -97.50175 | 53 ft | 0 kts | 327° |